Time;durP1;ratioP1;P1;durP2;ratioP2;P2;SDS_P1;SDS_P2;PMS_P1;PMS_P2;Temp;Humidity;BMP_temperature;BMP_pressure;BME280_temperature;BME280_humidity;BME280_pressure;Samples;Min_cycle;Max_cycle;Signal;HPM_P1;HPM_P2
2021/05/31 00:01:29;;;;;;;2.25;1.80;;;;;;;;;;5004799;28;20035;-76
2021/05/31 00:03:55;;;;;;;2.53;1.75;;;;;;;;;;5008103;28;20477;-76
2021/05/31 00:06:20;;;;;;;2.05;1.70;;;;;;;;;;5007950;28;20038;-75
2021/05/31 00:08:46;;;;;;;2.35;1.90;;;;;;;;;;4991253;28;20042;-76
2021/05/31 00:11:12;;;;;;;3.50;2.10;;;;;;;;;;5007768;28;20069;-76
2021/05/31 00:13:37;;;;;;;2.42;1.92;;;;;;;;;;4990581;28;20044;-76
2021/05/31 00:16:03;;;;;;;2.08;1.88;;;;;;;;;;5007582;28;20034;-76
2021/05/31 00:18:28;;;;;;;2.90;2.00;;;;;;;;;;5008375;28;20038;-77
2021/05/31 00:20:54;;;;;;;2.53;2.00;;;;;;;;;;5007934;28;20045;-76
2021/05/31 00:23:19;;;;;;;2.63;1.80;;;;;;;;;;5003848;28;20857;-76
2021/05/31 00:25:45;;;;;;;2.20;1.70;;;;;;;;;;4991161;28;20786;-76
2021/05/31 00:28:10;;;;;;;2.10;1.80;;;;;;;;;;5007132;28;20050;-76
2021/05/31 00:30:36;;;;;;;2.35;1.73;;;;;;;;;;4976769;28;20022;-76
2021/05/31 00:33:02;;;;;;;2.22;1.77;;;;;;;;;;5008389;28;20627;-76
2021/05/31 00:35:27;;;;;;;2.92;1.85;;;;;;;;;;5007411;28;20890;-76
2021/05/31 00:37:55;;;;;;;2.30;1.85;;;;;;;;;;5007587;28;20462;-76
2021/05/31 00:40:21;;;;;;;3.53;1.95;;;;;;;;;;5007930;28;20042;-76
2021/05/31 00:42:47;;;;;;;2.92;1.67;;;;;;;;;;5006577;28;20121;-76
2021/05/31 00:45:12;;;;;;;3.63;2.20;;;;;;;;;;5005642;28;20045;-76
2021/05/31 00:47:38;;;;;;;2.28;1.88;;;;;;;;;;5006934;28;20125;-77
2021/05/31 00:50:04;;;;;;;1.95;1.60;;;;;;;;;;5009925;28;20040;-76
2021/05/31 00:52:29;;;;;;;3.10;2.00;;;;;;;;;;5009075;28;20039;-76
2021/05/31 00:54:55;;;;;;;2.00;1.80;;;;;;;;;;5005172;28;20031;-76
2021/05/31 00:57:20;;;;;;;2.40;1.70;;;;;;;;;;5007210;28;20045;-76
2021/05/31 00:59:46;;;;;;;4.07;1.90;;;;;;;;;;5008159;28;20093;-76
2021/05/31 01:02:11;;;;;;;2.03;1.73;;;;;;;;;;5008656;28;20157;-76
2021/05/31 01:04:37;;;;;;;2.40;2.00;;;;;;;;;;4977903;28;20027;-76
2021/05/31 01:07:15;;;;;;;2.40;1.70;;;;;;;;;;4971038;28;20073;-76
2021/05/31 01:10:02;;;;;;;3.35;1.80;;;;;;;;;;4995269;28;20045;-77
2021/05/31 01:12:45;;;;;;;2.00;1.70;;;;;;;;;;5007211;28;20030;-76
2021/05/31 01:15:15;;;;;;;2.45;1.50;;;;;;;;;;5006657;28;20463;-76
2021/05/31 01:18:18;;;;;;;3.10;1.67;;;;;;;;;;5007195;28;20038;-76
2021/05/31 01:20:57;;;;;;;2.58;2.00;;;;;;;;;;4985447;28;20108;-76
2021/05/31 01:23:23;;;;;;;2.42;1.70;;;;;;;;;;5005791;28;20487;-76
2021/05/31 01:26:02;;;;;;;2.60;2.03;;;;;;;;;;5004581;28;20043;-77
2021/05/31 01:28:48;;;;;;;2.53;1.88;;;;;;;;;;4991373;28;20561;-77
2021/05/31 01:31:15;;;;;;;1.90;1.63;;;;;;;;;;5004270;28;20491;-77
2021/05/31 01:33:41;;;;;;;2.80;1.80;;;;;;;;;;5005953;28;20038;-77
2021/05/31 01:36:06;;;;;;;2.08;1.60;;;;;;;;;;4988863;28;20547;-77
2021/05/31 01:38:32;;;;;;;1.98;1.63;;;;;;;;;;5004313;28;20041;-78
2021/05/31 01:40:58;;;;;;;2.53;1.70;;;;;;;;;;5008147;28;20045;-77
2021/05/31 01:43:23;;;;;;;1.85;1.67;;;;;;;;;;4987729;28;20115;-77
2021/05/31 01:45:49;;;;;;;1.90;1.70;;;;;;;;;;4990419;28;20034;-77
2021/05/31 01:48:14;;;;;;;2.63;1.70;;;;;;;;;;5005670;28;20026;-77
2021/05/31 01:50:39;;;;;;;2.22;1.73;;;;;;;;;;5007010;28;20107;-77
2021/05/31 01:53:05;;;;;;;3.55;1.83;;;;;;;;;;5005543;28;20031;-77
2021/05/31 01:55:32;;;;;;;1.60;1.40;;;;;;;;;;4990115;28;20038;-77
2021/05/31 01:57:57;;;;;;;1.90;1.70;;;;;;;;;;5005670;28;20107;-78
2021/05/31 02:00:23;;;;;;;2.78;1.75;;;;;;;;;;5005574;28;20038;-78
2021/05/31 02:02:49;;;;;;;1.70;1.48;;;;;;;;;;4972861;28;20512;-78
2021/05/31 02:05:15;;;;;;;1.85;1.42;;;;;;;;;;4988945;28;20037;-78
2021/05/31 02:07:41;;;;;;;3.10;1.33;;;;;;;;;;5006908;28;20482;-78
2021/05/31 02:10:07;;;;;;;2.75;1.55;;;;;;;;;;4992988;28;20141;-78
2021/05/31 02:12:35;;;;;;;1.70;1.40;;;;;;;;;;4986730;28;20065;-78
2021/05/31 02:15:07;;;;;;;1.80;1.50;;;;;;;;;;5005932;28;20034;-78
2021/05/31 02:17:48;;;;;;;;;;;;;;;;;;5002936;28;20034;-78
2021/05/31 02:20:15;;;;;;;1.88;1.60;;;;;;;;;;5006567;28;19921;-78
2021/05/31 02:22:46;;;;;;;2.47;1.75;;;;;;;;;;5005501;28;20443;-78
2021/05/31 02:25:12;;;;;;;2.90;1.70;;;;;;;;;;5004646;28;20538;-79
2021/05/31 02:27:38;;;;;;;2.92;1.80;;;;;;;;;;5001447;28;20030;-79
2021/05/31 02:30:05;;;;;;;2.15;1.75;;;;;;;;;;5005969;28;20368;-79
2021/05/31 02:32:31;;;;;;;2.13;1.70;;;;;;;;;;5007378;28;20018;-79
2021/05/31 02:34:57;;;;;;;4.10;1.88;;;;;;;;;;5006185;28;20042;-78
2021/05/31 02:37:35;;;;;;;2.63;1.88;;;;;;;;;;5004265;28;20030;-78
2021/05/31 02:40:04;;;;;;;2.20;1.77;;;;;;;;;;5004328;28;20038;-78
2021/05/31 02:42:30;;;;;;;1.90;1.70;;;;;;;;;;4989893;28;20070;-78
2021/05/31 02:44:55;;;;;;;3.28;2.03;;;;;;;;;;4987521;28;20841;-78
2021/05/31 02:47:21;;;;;;;2.17;1.60;;;;;;;;;;4987140;28;20557;-78
2021/05/31 02:49:46;;;;;;;1.48;1.38;;;;;;;;;;5002635;28;20070;-78
2021/05/31 02:52:12;;;;;;;2.50;1.58;;;;;;;;;;5004072;28;20046;-78
2021/05/31 02:54:37;;;;;;;2.75;1.60;;;;;;;;;;5003570;28;20038;-78
2021/05/31 02:57:03;;;;;;;2.85;1.90;;;;;;;;;;5005689;28;20076;-78
2021/05/31 02:59:28;;;;;;;2.45;1.40;;;;;;;;;;5005063;28;20089;-78
2021/05/31 03:01:55;;;;;;;1.40;1.30;;;;;;;;;;5004796;28;20045;-78
2021/05/31 03:04:20;;;;;;;2.08;1.40;;;;;;;;;;5006276;28;20043;-78
2021/05/31 03:06:45;;;;;;;2.33;1.52;;;;;;;;;;5006841;28;20034;-78
2021/05/31 03:09:11;;;;;;;1.83;1.60;;;;;;;;;;5008214;28;20038;-78
2021/05/31 03:11:36;;;;;;;1.45;1.15;;;;;;;;;;5008990;28;20030;-78
2021/05/31 03:14:02;;;;;;;1.60;1.15;;;;;;;;;;5008582;28;21593;-79
2021/05/31 03:16:27;;;;;;;1.20;1.10;;;;;;;;;;5009876;28;20401;-79
2021/05/31 03:18:53;;;;;;;1.60;1.30;;;;;;;;;;5006070;28;20035;-79
2021/05/31 03:21:18;;;;;;;1.70;1.40;;;;;;;;;;4991588;28;23906;-79
2021/05/31 03:23:44;;;;;;;1.73;1.40;;;;;;;;;;5013535;28;20034;-79
2021/05/31 03:26:09;;;;;;;2.60;1.40;;;;;;;;;;5012295;28;20981;-79
2021/05/31 03:28:35;;;;;;;2.65;1.50;;;;;;;;;;5011242;28;20550;-79
2021/05/31 03:31:00;;;;;;;2.60;1.55;;;;;;;;;;5010114;28;20027;-79
2021/05/31 03:33:26;;;;;;;3.50;1.63;;;;;;;;;;5005981;28;20038;-80
2021/05/31 03:35:51;;;;;;;1.73;1.60;;;;;;;;;;5013387;28;20346;-79
2021/05/31 03:38:16;;;;;;;1.50;1.40;;;;;;;;;;5010201;28;20030;-79
2021/05/31 03:40:42;;;;;;;1.85;1.60;;;;;;;;;;5008330;28;20690;-79
2021/05/31 03:43:07;;;;;;;2.65;1.60;;;;;;;;;;5008713;28;20041;-79
2021/05/31 03:45:33;;;;;;;2.22;1.50;;;;;;;;;;5008965;28;20038;-80
2021/05/31 03:47:58;;;;;;;2.10;1.63;;;;;;;;;;4990775;28;20395;-79
2021/05/31 03:50:24;;;;;;;3.20;1.98;;;;;;;;;;5008066;28;20036;-79
2021/05/31 03:52:49;;;;;;;2.85;1.60;;;;;;;;;;5006099;28;20037;-79
2021/05/31 03:55:15;;;;;;;2.45;1.55;;;;;;;;;;4990127;28;20084;-79
2021/05/31 03:57:41;;;;;;;2.15;1.65;;;;;;;;;;5006346;28;20395;-79
2021/05/31 04:00:08;;;;;;;2.03;1.10;;;;;;;;;;5008668;28;20735;-78
2021/05/31 04:02:40;;;;;;;1.60;1.40;;;;;;;;;;5007224;28;20054;-79
2021/05/31 04:05:06;;;;;;;1.75;1.63;;;;;;;;;;5007619;28;20041;-79
2021/05/31 04:13:00;;;;;;;1.88;1.42;;;;;;;;;;5005794;28;20076;-79
2021/05/31 04:15:25;;;;;;;2.90;1.52;;;;;;;;;;5006899;28;20096;-79
2021/05/31 04:17:51;;;;;;;1.70;1.38;;;;;;;;;;5006927;28;20042;-80
2021/05/31 04:20:16;;;;;;;2.75;1.75;;;;;;;;;;5005631;28;20125;-78
2021/05/31 04:22:42;;;;;;;2.28;1.40;;;;;;;;;;4991132;28;20509;-79
2021/05/31 04:25:08;;;;;;;2.05;1.75;;;;;;;;;;5007572;28;20033;-79
2021/05/31 04:27:33;;;;;;;1.95;1.70;;;;;;;;;;4992719;28;20450;-80
2021/05/31 04:29:59;;;;;;;3.95;1.88;;;;;;;;;;5005412;28;20031;-80
2021/05/31 04:32:24;;;;;;;3.85;1.70;;;;;;;;;;5008228;28;20030;-80
2021/05/31 04:34:50;;;;;;;2.47;1.83;;;;;;;;;;4989886;28;20558;-80
2021/05/31 04:37:15;;;;;;;2.85;1.88;;;;;;;;;;4988340;28;20042;-80
2021/05/31 04:39:41;;;;;;;1.90;1.63;;;;;;;;;;5005649;28;20450;-80
2021/05/31 04:42:06;;;;;;;1.85;1.70;;;;;;;;;;4992824;28;20039;-80
2021/05/31 04:44:33;;;;;;;2.88;1.75;;;;;;;;;;5007977;28;20039;-80
2021/05/31 04:46:58;;;;;;;2.92;1.90;;;;;;;;;;4987984;28;20050;-80
2021/05/31 04:49:24;;;;;;;2.05;1.50;;;;;;;;;;5007817;28;20038;-80
2021/05/31 04:51:49;;;;;;;2.47;1.73;;;;;;;;;;4993567;28;20044;-80
2021/05/31 04:54:15;;;;;;;3.22;1.90;;;;;;;;;;5008145;28;20042;-80
2021/05/31 04:56:41;;;;;;;2.65;1.92;;;;;;;;;;5006524;28;20034;-81
2021/05/31 04:59:06;;;;;;;2.78;1.85;;;;;;;;;;5008049;28;20046;-81
2021/05/31 05:01:34;;;;;;;3.90;2.00;;;;;;;;;;5007992;28;20039;-80
2021/05/31 05:03:59;;;;;;;3.80;2.20;;;;;;;;;;5004400;28;20049;-80
2021/05/31 05:06:25;;;;;;;2.70;2.10;;;;;;;;;;5007445;28;20347;-80
2021/05/31 05:08:53;;;;;;;3.53;2.53;;;;;;;;;;5008462;28;20034;-80
2021/05/31 05:11:18;;;;;;;3.67;2.33;;;;;;;;;;5004580;28;20041;-80
2021/05/31 05:13:44;;;;;;;3.35;2.00;;;;;;;;;;5004913;28;20491;-80
2021/05/31 05:16:09;;;;;;;3.13;1.90;;;;;;;;;;5006353;28;20034;-80
2021/05/31 05:18:48;;;;;;;3.28;2.00;;;;;;;;;;4988664;28;20389;-79
2021/05/31 05:21:16;;;;;;;2.85;2.28;;;;;;;;;;5007246;28;20094;-79
2021/05/31 05:23:42;;;;;;;2.20;2.00;;;;;;;;;;4988976;28;20496;-79
2021/05/31 05:26:08;;;;;;;2.75;2.00;;;;;;;;;;4988609;28;20060;-79
2021/05/31 05:28:36;;;;;;;3.92;2.28;;;;;;;;;;5004107;28;20318;-78
2021/05/31 05:31:06;;;;;;;3.67;2.00;;;;;;;;;;5006681;28;20196;-79
2021/05/31 05:33:33;;;;;;;3.10;2.10;;;;;;;;;;5005181;28;20240;-77
2021/05/31 05:36:10;;;;;;;3.65;2.20;;;;;;;;;;5008526;28;20030;-78
2021/05/31 05:41:52;;;;;;;3.40;2.25;;;;;;;;;;4982695;28;20069;-78
2021/05/31 05:49:39;;;;;;;2.75;1.95;;;;;;;;;;5006458;28;20034;-79
2021/05/31 05:52:04;;;;;;;3.72;2.50;;;;;;;;;;5007611;28;20455;-78
2021/05/31 05:54:30;;;;;;;3.92;2.63;;;;;;;;;;5007166;28;20464;-78
2021/05/31 05:56:55;;;;;;;3.90;2.40;;;;;;;;;;5006675;28;20037;-79
2021/05/31 05:59:21;;;;;;;3.35;2.47;;;;;;;;;;5005856;28;20073;-78
2021/05/31 06:01:46;;;;;;;4.22;2.40;;;;;;;;;;4990280;28;20939;-79
2021/05/31 06:04:12;;;;;;;4.03;2.47;;;;;;;;;;5008524;28;20046;-79
2021/05/31 06:06:37;;;;;;;4.63;2.75;;;;;;;;;;5006905;28;20085;-79
2021/05/31 06:09:05;;;;;;;4.70;2.40;;;;;;;;;;5009084;28;20801;-79
2021/05/31 06:11:30;;;;;;;6.10;2.67;;;;;;;;;;5006767;28;20042;-79
2021/05/31 06:13:56;;;;;;;3.35;2.38;;;;;;;;;;5006161;28;20060;-79
2021/05/31 06:16:21;;;;;;;3.67;2.42;;;;;;;;;;5006778;28;20561;-78
2021/05/31 06:18:47;;;;;;;4.18;2.50;;;;;;;;;;5007082;28;20038;-79
2021/05/31 06:21:12;;;;;;;3.22;2.50;;;;;;;;;;4972380;28;20058;-79
2021/05/31 06:23:38;;;;;;;3.63;2.50;;;;;;;;;;5001797;28;20021;-79
2021/05/31 06:26:03;;;;;;;3.80;2.63;;;;;;;;;;5007941;28;20033;-80
2021/05/31 06:28:29;;;;;;;3.08;2.28;;;;;;;;;;5005655;28;20034;-79
2021/05/31 06:30:54;;;;;;;3.17;2.53;;;;;;;;;;5005379;28;20026;-80
2021/05/31 06:33:20;;;;;;;3.25;2.60;;;;;;;;;;5006853;28;20475;-80
2021/05/31 06:35:46;;;;;;;4.32;2.72;;;;;;;;;;5005054;28;20036;-80
2021/05/31 06:38:12;;;;;;;4.22;2.55;;;;;;;;;;5003549;28;20041;-80
2021/05/31 06:40:39;;;;;;;3.95;2.90;;;;;;;;;;5006729;28;20046;-80
2021/05/31 06:43:04;;;;;;;4.40;3.00;;;;;;;;;;4989773;28;20038;-80
2021/05/31 06:45:30;;;;;;;3.90;2.65;;;;;;;;;;5004661;28;20455;-80
2021/05/31 06:48:00;;;;;;;4.05;2.70;;;;;;;;;;4988991;28;20070;-80
2021/05/31 06:50:27;;;;;;;4.43;2.80;;;;;;;;;;5006761;28;20039;-80
2021/05/31 06:52:52;;;;;;;4.28;2.90;;;;;;;;;;5002724;28;20034;-80
2021/05/31 06:55:19;;;;;;;5.63;2.95;;;;;;;;;;5003963;28;20026;-80
2021/05/31 06:57:47;;;;;;;5.13;2.90;;;;;;;;;;4990535;28;20029;-80
2021/05/31 07:00:13;;;;;;;4.38;2.70;;;;;;;;;;4989059;28;20050;-81
2021/05/31 07:02:39;;;;;;;3.97;2.70;;;;;;;;;;5005360;28;20034;-81
2021/05/31 07:05:06;;;;;;;4.78;2.85;;;;;;;;;;4974740;28;20109;-81
2021/05/31 07:07:31;;;;;;;4.35;2.78;;;;;;;;;;4989013;28;20043;-80
2021/05/31 07:09:57;;;;;;;5.00;2.97;;;;;;;;;;5006607;28;20803;-81
2021/05/31 07:12:22;;;;;;;3.80;2.83;;;;;;;;;;4988441;28;20050;-81
2021/05/31 07:14:50;;;;;;;4.03;2.92;;;;;;;;;;5006690;28;20130;-81
2021/05/31 07:17:16;;;;;;;4.78;2.80;;;;;;;;;;5004030;28;20030;-81
2021/05/31 07:19:44;;;;;;;4.70;2.70;;;;;;;;;;4988694;28;20072;-81
2021/05/31 07:22:12;;;;;;;4.07;2.78;;;;;;;;;;5004426;28;20490;-81
2021/05/31 07:24:38;;;;;;;5.45;3.20;;;;;;;;;;4987940;28;20034;-81
2021/05/31 07:27:04;;;;;;;5.72;3.00;;;;;;;;;;5005597;28;20042;-81
2021/05/31 07:29:29;;;;;;;4.55;2.92;;;;;;;;;;5005543;28;20180;-81
2021/05/31 07:31:55;;;;;;;4.40;3.20;;;;;;;;;;4988885;28;20039;-81
2021/05/31 07:34:21;;;;;;;3.50;2.67;;;;;;;;;;4989127;28;20042;-81
2021/05/31 07:36:46;;;;;;;5.07;3.10;;;;;;;;;;5004334;28;20039;-81
2021/05/31 07:39:12;;;;;;;4.18;2.70;;;;;;;;;;5003875;28;20207;-81
2021/05/31 07:41:37;;;;;;;4.60;3.08;;;;;;;;;;5003825;28;20041;-80
2021/05/31 07:44:03;;;;;;;5.80;3.38;;;;;;;;;;5005975;28;20041;-81
2021/05/31 07:46:29;;;;;;;5.00;3.00;;;;;;;;;;5005307;28;20038;-81
2021/05/31 07:48:55;;;;;;;4.55;3.35;;;;;;;;;;5006356;28;20031;-81
2021/05/31 07:51:21;;;;;;;4.05;2.88;;;;;;;;;;5006190;28;20035;-81
2021/05/31 07:53:48;;;;;;;4.65;3.30;;;;;;;;;;5005609;28;20052;-82
2021/05/31 07:56:14;;;;;;;5.25;2.88;;;;;;;;;;4993506;28;20609;-82
2021/05/31 07:58:43;;;;;;;5.65;3.22;;;;;;;;;;4991201;28;20030;-82
2021/05/31 08:01:08;;;;;;;5.18;3.30;;;;;;;;;;4995756;28;20937;-82
2021/05/31 08:03:34;;;;;;;6.07;3.05;;;;;;;;;;4989986;28;20034;-82
2021/05/31 08:06:00;;;;;;;5.82;3.13;;;;;;;;;;4989530;28;20043;-83
2021/05/31 08:08:26;;;;;;;4.82;3.28;;;;;;;;;;5004795;28;20182;-81
2021/05/31 08:10:52;;;;;;;4.90;3.13;;;;;;;;;;4974979;28;21388;-82
2021/05/31 08:13:18;;;;;;;5.45;2.95;;;;;;;;;;5008146;28;20038;-82
2021/05/31 08:15:43;;;;;;;5.68;3.25;;;;;;;;;;5006788;28;20029;-83
2021/05/31 08:18:10;;;;;;;5.60;3.03;;;;;;;;;;4992969;28;20039;-82
2021/05/31 08:20:35;;;;;;;4.88;3.03;;;;;;;;;;5009565;28;20151;-82
2021/05/31 08:23:01;;;;;;;4.43;2.70;;;;;;;;;;5009869;28;20023;-82
2021/05/31 08:25:26;;;;;;;4.50;3.13;;;;;;;;;;5009596;28;20403;-83
2021/05/31 08:27:52;;;;;;;4.38;3.08;;;;;;;;;;5010378;28;20038;-83
2021/05/31 08:30:18;;;;;;;4.10;2.67;;;;;;;;;;4991375;28;20122;-83
2021/05/31 08:32:44;;;;;;;3.92;2.30;;;;;;;;;;5009907;28;20305;-83
2021/05/31 08:35:09;;;;;;;4.75;2.67;;;;;;;;;;5006810;28;20760;-83
2021/05/31 08:37:35;;;;;;;3.70;2.50;;;;;;;;;;5010074;28;20117;-83
2021/05/31 08:40:00;;;;;;;3.35;2.40;;;;;;;;;;5010714;28;20056;-83
2021/05/31 08:42:26;;;;;;;4.50;2.78;;;;;;;;;;5009002;28;20037;-82
2021/05/31 08:44:51;;;;;;;3.55;2.67;;;;;;;;;;5005326;28;20038;-83
2021/05/31 08:47:17;;;;;;;3.67;2.40;;;;;;;;;;5007987;28;20034;-83
2021/05/31 08:49:43;;;;;;;4.35;2.70;;;;;;;;;;4989443;28;20019;-83
2021/05/31 08:52:09;;;;;;;4.80;2.60;;;;;;;;;;5007317;28;20042;-83
2021/05/31 08:54:34;;;;;;;3.90;2.67;;;;;;;;;;5005562;28;20041;-83
2021/05/31 08:57:00;;;;;;;3.78;2.25;;;;;;;;;;5006592;28;20089;-83
2021/05/31 08:59:25;;;;;;;3.50;2.15;;;;;;;;;;5007423;28;20046;-84
2021/05/31 09:01:51;;;;;;;3.85;2.30;;;;;;;;;;5010048;28;20674;-83
2021/05/31 09:04:17;;;;;;;3.13;2.20;;;;;;;;;;5004572;28;20072;-84
2021/05/31 09:06:55;;;;;;;4.63;2.15;;;;;;;;;;4991701;28;20038;-84
2021/05/31 09:09:36;;;;;;;4.60;2.17;;;;;;;;;;5004377;28;20113;-84
2021/05/31 09:12:01;;;;;;;4.70;2.38;;;;;;;;;;5003636;28;20034;-84
2021/05/31 09:14:27;;;;;;;3.15;2.15;;;;;;;;;;5004604;28;20038;-84
2021/05/31 09:16:53;;;;;;;3.35;2.15;;;;;;;;;;5004705;28;20030;-84
2021/05/31 09:19:18;;;;;;;3.28;2.05;;;;;;;;;;5006654;28;20042;-83
2021/05/31 09:21:47;;;;;;;3.55;2.13;;;;;;;;;;5006433;28;20030;-83
2021/05/31 09:24:14;;;;;;;3.80;2.00;;;;;;;;;;5005673;28;20085;-84
2021/05/31 09:26:56;;;;;;;4.35;2.13;;;;;;;;;;5007614;28;20031;-83
2021/05/31 09:29:22;;;;;;;3.15;2.03;;;;;;;;;;5004823;28;20153;-83
2021/05/31 09:32:01;;;;;;;2.95;2.00;;;;;;;;;;4990625;28;20038;-84
2021/05/31 09:34:26;;;;;;;4.25;2.00;;;;;;;;;;5009151;28;20555;-84
2021/05/31 09:36:56;;;;;;;3.70;2.30;;;;;;;;;;5007182;28;20041;-84
2021/05/31 09:39:42;;;;;;;3.22;2.35;;;;;;;;;;5002198;28;20092;-83
2021/05/31 09:42:13;;;;;;;3.13;2.20;;;;;;;;;;4988983;28;20034;-79
2021/05/31 09:44:42;;;;;;;2.97;2.30;;;;;;;;;;5005969;28;20034;-83
2021/05/31 09:47:08;;;;;;;2.58;1.85;;;;;;;;;;5005794;28;20034;-83
2021/05/31 09:49:34;;;;;;;3.53;2.20;;;;;;;;;;4989375;28;20031;-83
2021/05/31 09:52:02;;;;;;;2.85;2.00;;;;;;;;;;5004542;28;20062;-83
2021/05/31 09:54:32;;;;;;;3.17;2.20;;;;;;;;;;5005869;28;20030;-83
2021/05/31 09:56:58;;;;;;;3.17;2.10;;;;;;;;;;5007439;28;20034;-83
2021/05/31 09:59:28;;;;;;;3.60;2.00;;;;;;;;;;5004648;28;20116;-83
2021/05/31 10:01:59;;;;;;;2.88;1.90;;;;;;;;;;4990349;28;20044;-83
2021/05/31 10:07:37;;;;;;;3.08;1.77;;;;;;;;;;4983008;28;20430;-83
2021/05/31 10:10:03;;;;;;;2.78;1.83;;;;;;;;;;5007116;28;20073;-83
2021/05/31 10:12:28;;;;;;;3.85;1.90;;;;;;;;;;4992253;28;20043;-83
2021/05/31 10:14:55;;;;;;;2.78;1.80;;;;;;;;;;5004088;28;20073;-83
2021/05/31 10:17:23;;;;;;;2.15;1.65;;;;;;;;;;5005782;28;20050;-83
2021/05/31 10:19:49;;;;;;;2.25;1.50;;;;;;;;;;5005130;28;20065;-82
2021/05/31 10:22:14;;;;;;;1.83;1.50;;;;;;;;;;4989036;28;20038;-82
2021/05/31 10:24:41;;;;;;;1.77;1.50;;;;;;;;;;4991284;28;20417;-82
2021/05/31 10:27:08;;;;;;;2.45;1.70;;;;;;;;;;4988641;28;20404;-82
2021/05/31 10:29:34;;;;;;;2.30;1.60;;;;;;;;;;5007421;28;20038;-82
2021/05/31 10:32:09;;;;;;;1.73;1.25;;;;;;;;;;5004512;28;20046;-83
2021/05/31 10:34:51;;;;;;;3.53;1.65;;;;;;;;;;5007067;28;20550;-83
2021/05/31 10:37:25;;;;;;;2.75;1.45;;;;;;;;;;4992175;28;20042;-83
2021/05/31 10:40:07;;;;;;;3.33;1.67;;;;;;;;;;5005302;28;20538;-82
2021/05/31 10:42:40;;;;;;;2.17;1.40;;;;;;;;;;5005978;28;20554;-82
2021/05/31 10:45:18;;;;;;;2.22;1.50;;;;;;;;;;5007337;28;20035;-83
2021/05/31 10:48:05;;;;;;;1.70;1.35;;;;;;;;;;5005388;28;20042;-83
2021/05/31 10:50:49;;;;;;;2.80;1.70;;;;;;;;;;5010791;28;20486;-83
2021/05/31 10:55:56;;;;;;;2.95;1.67;;;;;;;;;;5007737;28;20503;-83
2021/05/31 10:58:47;;;;;;;3.22;1.40;;;;;;;;;;4990740;28;20031;-83
2021/05/31 11:01:20;;;;;;;2.05;1.50;;;;;;;;;;5007535;28;20084;-84
2021/05/31 11:03:45;;;;;;;1.75;1.30;;;;;;;;;;5004305;28;20041;-82
2021/05/31 11:06:16;;;;;;;2.13;1.48;;;;;;;;;;5004772;28;20050;-83
2021/05/31 11:09:19;;;;;;;2.08;1.45;;;;;;;;;;5005043;28;20566;-82
2021/05/31 11:11:48;;;;;;;2.90;1.50;;;;;;;;;;4991618;28;20057;-83
2021/05/31 11:14:13;;;;;;;1.77;1.50;;;;;;;;;;4973816;28;21381;-82
2021/05/31 11:16:54;;;;;;;2.88;1.50;;;;;;;;;;5003771;28;20038;-82
2021/05/31 11:19:43;;;;;;;2.67;1.57;;;;;;;;;;5004374;28;20492;-83
2021/05/31 11:22:15;;;;;;;2.03;1.30;;;;;;;;;;5002545;28;20062;-82
2021/05/31 11:24:41;;;;;;;2.00;1.40;;;;;;;;;;5002653;28;20029;-81
2021/05/31 11:27:09;;;;;;;1.85;1.30;;;;;;;;;;5009160;28;20062;-82
2021/05/31 11:29:35;;;;;;;1.42;1.23;;;;;;;;;;4978572;28;20042;-82
2021/05/31 11:32:01;;;;;;;2.47;1.20;;;;;;;;;;4990195;28;20750;-82
2021/05/31 11:34:27;;;;;;;1.58;1.15;;;;;;;;;;4991128;28;20511;-82
2021/05/31 11:36:53;;;;;;;1.60;1.35;;;;;;;;;;4990979;28;20105;-82
2021/05/31 11:39:18;;;;;;;1.85;1.33;;;;;;;;;;5007555;28;20038;-82
2021/05/31 11:41:49;;;;;;;2.03;1.30;;;;;;;;;;5006551;28;20034;-82
2021/05/31 11:44:20;;;;;;;3.08;1.13;;;;;;;;;;5008186;28;20025;-81
2021/05/31 11:46:47;;;;;;;1.17;1.00;;;;;;;;;;5006038;28;20039;-82
2021/05/31 11:49:13;;;;;;;1.60;1.25;;;;;;;;;;4991791;28;20042;-81
2021/05/31 11:51:38;;;;;;;1.20;1.10;;;;;;;;;;5009205;28;20038;-81
2021/05/31 11:54:05;;;;;;;1.67;1.00;;;;;;;;;;4993481;28;20506;-81
2021/05/31 11:56:34;;;;;;;2.35;1.00;;;;;;;;;;5009933;28;20510;-82
2021/05/31 11:59:00;;;;;;;1.67;1.00;;;;;;;;;;5009301;28;20035;-81
2021/05/31 12:01:27;;;;;;;1.75;1.10;;;;;;;;;;4988500;28;20035;-81
2021/05/31 12:03:53;;;;;;;1.35;1.10;;;;;;;;;;5007723;28;20037;-81
2021/05/31 12:06:18;;;;;;;1.63;1.10;;;;;;;;;;4992493;28;20044;-81
2021/05/31 12:08:46;;;;;;;2.13;1.30;;;;;;;;;;5007935;28;20162;-81
2021/05/31 12:11:25;;;;;;;2.63;1.45;;;;;;;;;;5008322;28;20153;-80
2021/05/31 12:13:59;;;;;;;2.35;1.20;;;;;;;;;;5005874;28;20041;-81
2021/05/31 12:16:25;;;;;;;1.90;1.30;;;;;;;;;;5007870;28;20716;-81
2021/05/31 12:18:50;;;;;;;1.65;1.10;;;;;;;;;;5005110;28;20038;-80
2021/05/31 12:21:16;;;;;;;3.17;1.40;;;;;;;;;;5008586;28;20523;-80
2021/05/31 12:23:47;;;;;;;2.05;1.20;;;;;;;;;;5006455;28;20049;-81
2021/05/31 12:26:13;;;;;;;3.78;1.23;;;;;;;;;;5005847;28;21133;-81
2021/05/31 12:28:38;;;;;;;3.60;1.30;;;;;;;;;;5008650;28;20034;-81
2021/05/31 12:31:04;;;;;;;1.75;1.17;;;;;;;;;;5008327;28;20038;-80
2021/05/31 12:33:29;;;;;;;1.15;0.82;;;;;;;;;;4990545;28;20042;-81
2021/05/31 12:35:55;;;;;;;2.10;1.15;;;;;;;;;;5008785;28;20203;-80
2021/05/31 12:38:21;;;;;;;1.60;1.00;;;;;;;;;;5006985;28;20401;-81
2021/05/31 12:40:47;;;;;;;1.77;1.42;;;;;;;;;;5009678;28;21020;-80
2021/05/31 12:43:13;;;;;;;2.50;1.30;;;;;;;;;;5006135;28;20038;-81
2021/05/31 12:45:46;;;;;;;1.67;0.90;;;;;;;;;;5006803;28;20510;-81
2021/05/31 12:48:13;;;;;;;2.28;1.00;;;;;;;;;;5006592;28;20046;-81
2021/05/31 12:50:38;;;;;;;1.65;0.82;;;;;;;;;;5008296;28;20038;-80
2021/05/31 12:53:05;;;;;;;1.45;1.08;;;;;;;;;;5006431;28;20502;-81
2021/05/31 12:55:31;;;;;;;2.22;1.00;;;;;;;;;;4991349;28;20027;-81
2021/05/31 12:57:56;;;;;;;1.70;0.90;;;;;;;;;;5005748;28;20479;-80
2021/05/31 13:00:30;;;;;;;1.08;0.80;;;;;;;;;;5009049;28;20355;-80
2021/05/31 13:03:01;;;;;;;1.73;0.90;;;;;;;;;;5009091;28;20058;-80
2021/05/31 13:05:28;;;;;;;2.97;1.20;;;;;;;;;;4993095;28;20034;-81
2021/05/31 13:07:55;;;;;;;1.00;0.80;;;;;;;;;;5010961;28;20101;-80
2021/05/31 13:10:22;;;;;;;0.95;0.80;;;;;;;;;;4995184;28;20026;-80
2021/05/31 13:12:51;;;;;;;1.27;0.80;;;;;;;;;;4992570;28;20478;-81
2021/05/31 13:15:18;;;;;;;0.95;0.80;;;;;;;;;;5008378;28;20062;-80
2021/05/31 13:17:43;;;;;;;1.48;0.90;;;;;;;;;;4973337;28;20173;-80
2021/05/31 13:20:14;;;;;;;1.85;1.20;;;;;;;;;;5006291;28;20046;-80
2021/05/31 13:22:39;;;;;;;1.23;0.90;;;;;;;;;;4989550;28;20093;-81
2021/05/31 13:25:05;;;;;;;1.38;0.82;;;;;;;;;;5008366;28;20038;-81
2021/05/31 13:27:35;;;;;;;0.95;0.85;;;;;;;;;;4992438;28;20046;-80
2021/05/31 13:30:12;;;;;;;1.08;0.73;;;;;;;;;;5012050;28;20038;-81
2021/05/31 13:32:38;;;;;;;1.55;0.90;;;;;;;;;;5008657;28;20121;-81
2021/05/31 13:35:08;;;;;;;1.20;0.70;;;;;;;;;;5005953;28;20565;-81
2021/05/31 13:37:50;;;;;;;0.95;0.82;;;;;;;;;;4992713;28;20556;-80
2021/05/31 13:40:16;;;;;;;1.60;1.05;;;;;;;;;;5010265;28;20042;-78
2021/05/31 13:43:05;;;;;;;2.05;0.90;;;;;;;;;;5005230;28;20038;-81
2021/05/31 13:45:39;;;;;;;0.77;0.70;;;;;;;;;;5005335;28;20081;-81
2021/05/31 13:48:05;;;;;;;2.10;0.85;;;;;;;;;;5007853;28;20455;-81
2021/05/31 13:50:31;;;;;;;1.77;0.90;;;;;;;;;;5007198;28;20072;-80
2021/05/31 13:52:57;;;;;;;2.05;0.90;;;;;;;;;;4989151;28;20038;-81
2021/05/31 13:55:22;;;;;;;1.25;1.00;;;;;;;;;;5008037;28;20049;-80
2021/05/31 13:57:48;;;;;;;1.27;0.80;;;;;;;;;;4990810;28;20418;-80
2021/05/31 14:00:15;;;;;;;1.40;0.90;;;;;;;;;;4989288;28;20042;-80
2021/05/31 14:02:41;;;;;;;1.33;0.70;;;;;;;;;;5006174;28;20104;-81
2021/05/31 14:05:07;;;;;;;2.05;0.93;;;;;;;;;;5006930;28;20080;-80
2021/05/31 14:07:33;;;;;;;1.92;0.90;;;;;;;;;;5006337;28;20061;-80
2021/05/31 14:09:59;;;;;;;1.38;0.88;;;;;;;;;;4992127;28;20038;-80
2021/05/31 14:12:25;;;;;;;2.05;1.05;;;;;;;;;;4989135;28;20578;-80
2021/05/31 14:14:50;;;;;;;1.20;0.68;;;;;;;;;;4987897;28;20026;-80
2021/05/31 14:17:16;;;;;;;1.27;0.70;;;;;;;;;;4987017;28;20037;-80
2021/05/31 14:19:41;;;;;;;0.93;0.70;;;;;;;;;;5006768;28;20097;-80
2021/05/31 14:22:07;;;;;;;1.77;0.80;;;;;;;;;;5006275;28;20044;-81
2021/05/31 14:24:32;;;;;;;1.55;0.88;;;;;;;;;;5004065;28;20479;-80
2021/05/31 14:26:58;;;;;;;2.00;0.95;;;;;;;;;;5005482;28;20034;-80
2021/05/31 14:29:24;;;;;;;1.55;0.80;;;;;;;;;;5006399;28;20068;-80
2021/05/31 14:31:50;;;;;;;2.03;0.80;;;;;;;;;;5008860;28;20041;-80
2021/05/31 14:34:15;;;;;;;1.42;0.75;;;;;;;;;;4990325;28;20042;-81
2021/05/31 14:36:41;;;;;;;1.05;0.85;;;;;;;;;;5004747;28;20034;-80
2021/05/31 14:39:06;;;;;;;0.80;0.80;;;;;;;;;;5006389;28;20475;-80
2021/05/31 14:41:32;;;;;;;0.93;0.80;;;;;;;;;;4987100;28;20125;-80
2021/05/31 14:43:57;;;;;;;1.40;0.88;;;;;;;;;;5005208;28;20448;-81
2021/05/31 14:46:23;;;;;;;1.10;0.80;;;;;;;;;;5004829;28;20092;-80
2021/05/31 14:48:48;;;;;;;1.40;1.00;;;;;;;;;;5002376;28;20042;-80
2021/05/31 14:51:14;;;;;;;1.00;0.85;;;;;;;;;;4977007;28;20038;-80
2021/05/31 14:53:40;;;;;;;1.65;0.93;;;;;;;;;;5006744;28;20525;-80
2021/05/31 14:56:06;;;;;;;1.13;0.93;;;;;;;;;;5005896;28;20026;-81
2021/05/31 14:58:31;;;;;;;1.02;0.85;;;;;;;;;;5004269;28;20495;-80
2021/05/31 15:00:57;;;;;;;1.05;0.65;;;;;;;;;;5006001;28;20046;-80
2021/05/31 15:03:23;;;;;;;1.35;1.10;;;;;;;;;;4995872;28;20085;-80
2021/05/31 15:05:49;;;;;;;0.82;0.80;;;;;;;;;;5009014;28;20037;-80